createdAt,value
2017-04-26T00:00:46.093Z,7.05
2017-04-26T00:01:46.376Z,7.04
2017-04-26T00:02:46.043Z,6.98
2017-04-26T00:03:46.392Z,6.96
2017-04-26T00:04:46.053Z,6.88
2017-04-26T00:05:46.292Z,6.65
2017-04-26T00:06:46.322Z,6.72
2017-04-26T00:07:45.934Z,6.7
2017-04-26T00:08:46.322Z,6.9
2017-04-26T00:09:46.005Z,6.81
2017-04-26T00:10:46.160Z,6.93
2017-04-26T00:11:45.832Z,6.9
2017-04-26T00:12:45.888Z,6.93
2017-04-26T00:13:46.104Z,6.93
2017-04-26T00:14:46.062Z,7.09
2017-04-26T00:15:45.742Z,7.02
2017-04-26T00:16:46.042Z,6.94
2017-04-26T00:17:45.707Z,6.84
2017-04-26T00:18:45.738Z,6.87
2017-04-26T00:19:45.963Z,6.9
2017-04-26T00:20:45.934Z,6.9
2017-04-26T00:21:45.905Z,6.86
2017-04-26T00:22:45.892Z,6.68
2017-04-26T00:23:45.562Z,6.73
2017-04-26T00:24:45.603Z,6.63
2017-04-26T00:25:45.503Z,6.78
2017-04-26T00:26:45.550Z,6.8
2017-04-26T00:27:45.773Z,6.77
2017-04-26T00:28:45.744Z,6.81
2017-04-26T00:29:45.718Z,6.87
2017-04-26T00:30:45.694Z,6.9
2017-04-26T00:31:45.694Z,7.05
2017-04-26T00:32:45.652Z,7.01
2017-04-26T00:33:45.625Z,6.88
2017-04-26T00:34:45.302Z,6.83
2017-04-26T00:35:45.270Z,6.86
2017-04-26T00:36:45.561Z,6.69
2017-04-26T00:37:44.935Z,6.69
2017-04-26T00:38:44.903Z,6.73
2017-04-26T00:39:44.872Z,6.55
2017-04-26T00:40:45.151Z,6.63
2017-04-26T00:41:45.449Z,6.7
2017-04-26T00:42:45.412Z,6.72
2017-04-26T00:43:45.092Z,6.72
2017-04-26T00:44:45.373Z,6.73
2017-04-26T00:45:45.342Z,6.57
2017-04-26T00:46:45.319Z,6.66
2017-04-26T00:47:45.297Z,6.66
2017-04-26T00:48:44.664Z,6.59
2017-04-26T00:49:44.643Z,6.59
2017-04-26T00:50:45.224Z,6.66
2017-04-26T00:51:44.583Z,6.44
2017-04-26T00:52:44.562Z,6.36
2017-04-26T00:53:44.863Z,6.4
2017-04-26T00:54:45.131Z,6.43
2017-04-26T00:55:45.122Z,6.41
2017-04-26T00:56:44.783Z,6.45
2017-04-26T00:57:44.755Z,6.3
2017-04-26T00:58:44.728Z,6.08
2017-04-26T00:59:45.016Z,6.32
2017-04-26T01:00:44.992Z,6.16
2017-04-26T01:01:44.672Z,6.3
2017-04-26T01:02:44.642Z,6.36
2017-04-26T01:03:44.913Z,6.32
2017-04-26T01:04:44.593Z,6.04
2017-04-26T01:05:44.562Z,6.25
2017-04-26T01:06:44.840Z,6.37
2017-04-26T01:07:44.824Z,6.35
2017-04-26T01:08:44.802Z,6.25
2017-04-26T01:09:44.773Z,6.35
2017-04-26T01:10:44.754Z,6.22
2017-04-26T01:11:44.423Z,6.35
2017-04-26T01:12:44.403Z,6.43
2017-04-26T01:13:44.432Z,6.41
2017-04-26T01:14:44.400Z,6.32
2017-04-26T01:15:44.675Z,6.33
2017-04-26T01:16:44.593Z,6.44
2017-04-26T01:17:44.634Z,6.57
2017-04-26T01:18:44.256Z,6.57
2017-04-26T01:19:43.929Z,6.57
2017-04-26T01:20:44.533Z,6.59
2017-04-26T01:21:44.192Z,6.69
2017-04-26T01:22:44.162Z,6.72
2017-04-26T01:23:44.492Z,6.72
2017-04-26T01:24:44.468Z,6.7
2017-04-26T01:25:44.082Z,6.36
2017-04-26T01:26:44.422Z,6.25
2017-04-26T01:27:44.419Z,6.41
2017-04-26T01:28:44.085Z,6.43
2017-04-26T01:29:44.059Z,6.27
2017-04-26T01:30:44.022Z,6.13
2017-04-26T01:31:43.952Z,6.26
2017-04-26T01:32:44.023Z,6.27
2017-04-26T01:33:43.924Z,6.27
2017-04-26T01:34:43.871Z,6.4
2017-04-26T01:35:43.921Z,6.35
2017-04-26T01:36:44.254Z,6.44
2017-04-26T01:37:43.794Z,6.59
2017-04-26T01:38:44.095Z,6.52
2017-04-26T01:39:43.772Z,6.57
2017-04-26T01:40:43.722Z,6.59
2017-04-26T01:41:43.403Z,6.59
2017-04-26T01:42:43.684Z,6.47
2017-04-26T01:43:44.053Z,6.37
2017-04-26T01:44:43.333Z,6.45
2017-04-26T01:45:43.614Z,6.43
2017-04-26T01:46:43.590Z,6.51
2017-04-26T01:47:43.563Z,6.59
2017-04-26T01:48:43.851Z,6.48
2017-04-26T01:49:43.565Z,6.52
2017-04-26T01:50:43.483Z,6.55
2017-04-26T01:51:43.159Z,6.51
2017-04-26T01:52:43.435Z,6.51
2017-04-26T01:53:43.830Z,6.63
2017-04-26T01:54:43.398Z,6.59
2017-04-26T01:55:43.794Z,6.54
2017-04-26T01:56:43.663Z,6.51
2017-04-26T01:57:43.717Z,6.59
2017-04-26T01:58:43.612Z,6.47
2017-04-26T01:59:43.283Z,6.48
2017-04-26T02:00:43.572Z,6.37
2017-04-26T02:01:43.533Z,6.45
2017-04-26T02:02:43.543Z,6.45
2017-04-26T02:03:43.492Z,6.43
2017-04-26T02:04:43.158Z,6.41
2017-04-26T02:05:43.454Z,6.36
2017-04-26T02:06:43.412Z,6.32
2017-04-26T02:07:43.095Z,6.29
2017-04-26T02:08:43.387Z,6.37
2017-04-26T02:09:43.338Z,6.4
2017-04-26T02:10:43.338Z,6.36
2017-04-26T02:11:42.982Z,6.43
2017-04-26T02:12:43.273Z,6.43
2017-04-26T02:13:43.244Z,6.48
2017-04-26T02:14:42.911Z,6.36
2017-04-26T02:15:43.217Z,6.35
2017-04-26T02:16:43.174Z,6.43
2017-04-26T02:17:42.543Z,6.36
2017-04-26T02:18:42.834Z,6.26
2017-04-26T02:19:42.792Z,6.07
2017-04-26T02:20:43.093Z,6.03
2017-04-26T02:21:42.743Z,6.08
2017-04-26T02:22:43.028Z,5.96
2017-04-26T02:23:43.033Z,5.99
2017-04-26T02:24:42.682Z,6
2017-04-26T02:25:42.953Z,5.96
2017-04-26T02:26:42.634Z,5.96
2017-04-26T02:27:42.970Z,5.9
2017-04-26T02:28:42.593Z,5.62
2017-04-26T02:29:42.873Z,5.62
2017-04-26T02:30:42.843Z,5.44
2017-04-26T02:31:42.504Z,5.46
2017-04-26T02:32:42.813Z,5.46
2017-04-26T02:33:42.162Z,5.63
2017-04-26T02:34:42.773Z,5.65
2017-04-26T02:35:42.713Z,5.9
2017-04-26T02:36:42.692Z,5.93
2017-04-26T02:37:42.364Z,5.98
2017-04-26T02:38:42.656Z,5.77
2017-04-26T02:39:42.300Z,5.74
2017-04-26T02:40:42.301Z,5.62
2017-04-26T02:41:42.268Z,5.53
2017-04-26T02:42:42.246Z,5.62
2017-04-26T02:43:42.223Z,5.68
2017-04-26T02:44:42.244Z,5.78
2017-04-26T02:45:42.163Z,5.85
2017-04-26T02:46:42.153Z,5.92
2017-04-26T02:47:42.128Z,5.9
2017-04-26T02:48:42.419Z,5.92
2017-04-26T02:49:42.085Z,5.95
2017-04-26T02:50:42.050Z,6.03
2017-04-26T02:51:42.320Z,5.96
2017-04-26T02:52:42.023Z,5.92
2017-04-26T02:53:42.295Z,5.92
2017-04-26T02:54:42.303Z,5.99
2017-04-26T02:55:41.936Z,6.03
2017-04-26T02:56:42.282Z,6.03
2017-04-26T02:57:41.884Z,6.04
2017-04-26T02:58:41.892Z,6.04
2017-04-26T02:59:42.162Z,6.1
2017-04-26T03:00:41.814Z,6.08
2017-04-26T03:01:42.114Z,5.98
2017-04-26T03:02:42.071Z,5.95
2017-04-26T03:03:41.731Z,6.03
2017-04-26T03:04:41.402Z,6.03
2017-04-26T03:05:42.042Z,6.08
2017-04-26T03:06:41.720Z,6.08
2017-04-26T03:07:42.103Z,5.98
2017-04-26T03:08:41.963Z,6.07
2017-04-26T03:09:41.595Z,6.03
2017-04-26T03:10:41.595Z,6.13
2017-04-26T03:11:41.554Z,6
2017-04-26T03:12:41.882Z,6.1
2017-04-26T03:13:41.187Z,6.04
2017-04-26T03:14:41.815Z,6.04
2017-04-26T03:15:41.455Z,5.98
2017-04-26T03:16:41.417Z,5.92
2017-04-26T03:17:41.109Z,5.78
2017-04-26T03:18:41.383Z,5.8
2017-04-26T03:19:41.343Z,5.49
2017-04-26T03:20:41.013Z,5.44
2017-04-26T03:21:41.301Z,5.44
2017-04-26T03:22:41.584Z,5.62
2017-04-26T03:23:41.561Z,5.65
2017-04-26T03:24:41.230Z,5.63
2017-04-26T03:25:41.191Z,5.67
2017-04-26T03:26:41.497Z,5.57
2017-04-26T03:27:41.151Z,5.7
2017-04-26T03:28:41.144Z,5.75
2017-04-26T03:29:41.115Z,5.73
2017-04-26T03:30:41.073Z,5.71
2017-04-26T03:31:41.364Z,5.74
2017-04-26T03:32:41.343Z,5.75
2017-04-26T03:33:41.003Z,5.65
2017-04-26T03:34:40.994Z,5.39
2017-04-26T03:35:40.955Z,5.41
2017-04-26T03:36:41.243Z,5.49
2017-04-26T03:37:41.211Z,5.39
2017-04-26T03:38:40.897Z,5.35
2017-04-26T03:39:40.859Z,5.47
2017-04-26T03:40:41.183Z,5.32
2017-04-26T03:41:41.115Z,5.44
2017-04-26T03:42:41.095Z,5.35
2017-04-26T03:43:41.073Z,5.42
2017-04-26T03:44:40.756Z,5.37
2017-04-26T03:45:41.023Z,5.32
2017-04-26T03:46:40.993Z,5.39
2017-04-26T03:47:40.984Z,5.5
2017-04-26T03:48:40.946Z,5.46
2017-04-26T03:49:40.621Z,5.49
2017-04-26T03:50:40.589Z,5.42
2017-04-26T03:51:40.886Z,5.47
2017-04-26T03:52:40.844Z,5.39
2017-04-26T03:53:40.831Z,5.38
2017-04-26T03:54:40.805Z,5.32
2017-04-26T03:55:40.174Z,5.35
2017-04-26T03:56:40.443Z,5.34
2017-04-26T03:57:40.721Z,5.28
2017-04-26T03:58:40.392Z,5.32
2017-04-26T03:59:40.490Z,5.29
2017-04-26T04:00:40.359Z,5.32
2017-04-26T04:01:40.634Z,5.37
2017-04-26T04:02:40.290Z,5.39
2017-04-26T04:03:40.586Z,5.42
2017-04-26T04:04:40.258Z,5.41
2017-04-26T04:05:40.223Z,5.59
2017-04-26T04:06:40.513Z,5.63
2017-04-26T04:07:39.873Z,5.55
2017-04-26T04:08:40.455Z,5.7
2017-04-26T04:09:40.129Z,5.42
2017-04-26T04:10:39.796Z,5.49
2017-04-26T04:11:40.365Z,5.53
2017-04-26T04:12:40.053Z,5.63
2017-04-26T04:13:40.338Z,5.57
2017-04-26T04:14:40.340Z,5.47
2017-04-26T04:15:40.333Z,5.59
2017-04-26T04:16:39.944Z,5.7
2017-04-26T04:17:39.922Z,5.63
2017-04-26T04:18:39.912Z,5.44
2017-04-26T04:19:40.263Z,5.35
2017-04-26T04:20:39.863Z,5.32
2017-04-26T04:21:40.134Z,5.42
2017-04-26T04:22:39.494Z,5.86
2017-04-26T04:23:40.174Z,6
2017-04-26T04:24:40.130Z,5.96
2017-04-26T04:25:39.733Z,5.71
2017-04-26T04:26:40.014Z,5.63
2017-04-26T04:27:39.992Z,5.46
2017-04-26T04:28:39.663Z,5.29
2017-04-26T04:29:39.631Z,5.24
2017-04-26T04:30:39.615Z,5.38
2017-04-26T04:31:39.279Z,5.37
2017-04-26T04:32:39.913Z,5.32
2017-04-26T04:33:39.835Z,5.34
2017-04-26T04:34:39.503Z,5.34
2017-04-26T04:35:39.813Z,5.28
2017-04-26T04:36:39.465Z,5.16
2017-04-26T04:37:39.745Z,5.06
2017-04-26T04:38:39.745Z,5.1
2017-04-26T04:39:39.702Z,5.13
2017-04-26T04:40:39.364Z,5.14
2017-04-26T04:41:39.639Z,5.09
2017-04-26T04:42:39.313Z,5.11
2017-04-26T04:43:39.290Z,5.16
2017-04-26T04:44:39.576Z,5.1
2017-04-26T04:45:39.232Z,5.2
2017-04-26T04:46:39.515Z,5.26
2017-04-26T04:47:39.192Z,5.26
2017-04-26T04:48:38.874Z,5.1
2017-04-26T04:49:38.837Z,5.1
2017-04-26T04:50:39.448Z,5.26
2017-04-26T04:51:39.101Z,5.06
2017-04-26T04:52:39.383Z,5.06
2017-04-26T04:53:38.736Z,5.14
2017-04-26T04:54:38.719Z,5.2
2017-04-26T04:55:39.305Z,5.29
2017-04-26T04:56:38.655Z,5.02
2017-04-26T04:57:39.258Z,5.2
2017-04-26T04:58:38.925Z,5.31
2017-04-26T04:59:38.896Z,5.38
2017-04-26T05:00:38.593Z,5.32
2017-04-26T05:01:38.865Z,5.42
2017-04-26T05:02:38.882Z,5.34
2017-04-26T05:03:38.814Z,5.05
2017-04-26T05:04:39.148Z,5.29
2017-04-26T05:05:38.748Z,5.26
2017-04-26T05:06:38.722Z,5.32
2017-04-26T05:07:38.695Z,5.44
2017-04-26T05:08:38.981Z,5.37
2017-04-26T05:09:38.954Z,5.23
2017-04-26T05:10:38.932Z,5.19
2017-04-26T05:11:38.904Z,5.32
2017-04-26T05:12:38.580Z,5.34
2017-04-26T05:13:38.863Z,5.39
2017-04-26T05:14:38.842Z,5.35
2017-04-26T05:15:38.815Z,5.49
2017-04-26T05:16:38.781Z,5.62
2017-04-26T05:17:38.752Z,5.47
2017-04-26T05:18:38.427Z,5.62
2017-04-26T05:19:38.722Z,5.77
2017-04-26T05:20:38.382Z,5.68
2017-04-26T05:21:38.663Z,5.59
2017-04-26T05:22:38.642Z,5.53
2017-04-26T05:23:38.001Z,5.5
2017-04-26T05:24:38.311Z,5.47
2017-04-26T05:25:38.584Z,5.39
2017-04-26T05:26:38.543Z,5.5
2017-04-26T05:27:38.529Z,5.67
2017-04-26T05:28:38.503Z,5.7
2017-04-26T05:29:38.474Z,5.8
2017-04-26T05:30:38.443Z,5.95
2017-04-26T05:31:38.137Z,5.98
2017-04-26T05:32:38.392Z,5.95
2017-04-26T05:33:38.063Z,5.96
2017-04-26T05:34:38.039Z,6.08
2017-04-26T05:35:38.042Z,6.16
2017-04-26T05:36:38.301Z,6.1
2017-04-26T05:37:37.964Z,6.03
2017-04-26T05:38:38.263Z,6.03
2017-04-26T05:39:38.222Z,6.1
2017-04-26T05:40:38.215Z,5.98
2017-04-26T05:41:37.891Z,5.73
2017-04-26T05:42:37.862Z,5.7
2017-04-26T05:43:37.830Z,5.7
2017-04-26T05:44:38.162Z,5.62
2017-04-26T05:45:38.082Z,5.6
2017-04-26T05:46:37.440Z,5.73
2017-04-26T05:47:38.023Z,5.89
2017-04-26T05:48:37.711Z,5.73
2017-04-26T05:49:37.991Z,5.71
2017-04-26T05:50:37.652Z,5.75
2017-04-26T05:51:37.633Z,5.93
2017-04-26T05:52:37.914Z,6.11
2017-04-26T05:53:37.591Z,6.3
2017-04-26T05:54:37.863Z,6.36
2017-04-26T05:55:37.534Z,6.43
2017-04-26T05:56:37.818Z,6.45
2017-04-26T05:57:37.181Z,6.43
2017-04-26T05:58:37.460Z,6.45
2017-04-26T05:59:37.439Z,6.45
2017-04-26T06:00:37.413Z,6.51
2017-04-26T06:01:37.405Z,6.5
2017-04-26T06:02:37.669Z,6.4
2017-04-26T06:03:37.727Z,6.36
2017-04-26T06:04:37.328Z,6.41
2017-04-26T06:05:36.991Z,6.54
2017-04-26T06:06:36.967Z,6.6
2017-04-26T06:07:37.253Z,6.69
2017-04-26T06:08:37.277Z,6.69
2017-04-26T06:09:37.522Z,6.72
2017-04-26T06:10:37.491Z,6.77
2017-04-26T06:11:37.157Z,6.87
2017-04-26T06:12:37.442Z,6.9
2017-04-26T06:13:37.411Z,6.69
2017-04-26T06:14:37.392Z,6.75
2017-04-26T06:15:37.061Z,6.96
2017-04-26T06:16:37.049Z,6.99
2017-04-26T06:17:36.712Z,7.08
2017-04-26T06:18:36.993Z,7.08
2017-04-26T06:19:37.285Z,6.84
2017-04-26T06:20:37.252Z,6.96
2017-04-26T06:21:37.264Z,6.69
2017-04-26T06:22:37.223Z,6.57
2017-04-26T06:23:37.284Z,6.72
2017-04-26T06:24:36.863Z,6.57
2017-04-26T06:25:36.842Z,6.48
2017-04-26T06:26:37.111Z,6.57
2017-04-26T06:27:37.142Z,6.63
2017-04-26T06:28:36.773Z,6.69
2017-04-26T06:29:36.774Z,6.75
2017-04-26T06:30:36.722Z,6.68
2017-04-26T06:31:36.777Z,6.68
2017-04-26T06:32:36.972Z,6.65
2017-04-26T06:33:36.357Z,6.75
2017-04-26T06:34:36.618Z,6.66
2017-04-26T06:35:36.396Z,6.66
2017-04-26T06:36:36.582Z,6.8
2017-04-26T06:37:36.934Z,6.69
2017-04-26T06:38:36.532Z,6.77
2017-04-26T06:39:36.218Z,6.65
2017-04-26T06:40:36.187Z,6.98
2017-04-26T06:41:36.902Z,7.04
2017-04-26T06:42:36.454Z,6.94
2017-04-26T06:43:36.742Z,7.02
2017-04-26T06:44:36.404Z,7.14
2017-04-26T06:45:36.475Z,7.29
2017-04-26T06:46:36.759Z,7.06
2017-04-26T06:47:36.384Z,7.02
2017-04-26T06:48:36.309Z,6.87
2017-04-26T06:49:36.282Z,6.93
2017-04-26T06:50:36.632Z,7.08
2017-04-26T06:51:36.542Z,7.04
2017-04-26T06:52:36.253Z,7.17
2017-04-26T06:53:36.496Z,7.27
2017-04-26T06:54:36.175Z,7.34
2017-04-26T06:55:36.174Z,7.06
2017-04-26T06:56:36.138Z,7.06
2017-04-26T06:57:36.095Z,7.14
2017-04-26T06:58:36.373Z,7.29
2017-04-26T06:59:36.078Z,7.41
2017-04-26T07:00:36.028Z,7.45
2017-04-26T07:01:36.017Z,7.35
2017-04-26T07:02:36.105Z,7.39
2017-04-26T07:03:36.264Z,7.49
2017-04-26T07:04:36.263Z,7.55
2017-04-26T07:05:36.240Z,7.55
2017-04-26T07:06:36.196Z,7.59
2017-04-26T07:07:36.184Z,7.57
2017-04-26T07:08:36.172Z,7.7
2017-04-26T07:09:36.135Z,7.79
2017-04-26T07:10:36.104Z,7.78
2017-04-26T07:11:35.483Z,7.67
2017-04-26T07:12:36.073Z,7.76
2017-04-26T07:13:36.053Z,7.7
2017-04-26T07:14:35.730Z,7.73
2017-04-26T07:15:36.004Z,7.57
2017-04-26T07:16:35.972Z,7.39
2017-04-26T07:17:35.962Z,7.55
2017-04-26T07:18:35.324Z,7.7
2017-04-26T07:19:35.607Z,7.42
2017-04-26T07:20:35.883Z,7.42
2017-04-26T07:21:35.558Z,7.56
2017-04-26T07:22:35.842Z,7.72
2017-04-26T07:23:35.830Z,7.78
2017-04-26T07:24:35.497Z,7.99
2017-04-26T07:25:35.773Z,8.07
2017-04-26T07:26:35.535Z,7.82
2017-04-26T07:27:35.422Z,7.75
2017-04-26T07:28:35.715Z,7.9
2017-04-26T07:29:35.674Z,7.93
2017-04-26T07:30:35.372Z,7.93
2017-04-26T07:31:35.333Z,8.11
2017-04-26T07:32:35.015Z,8.19
2017-04-26T07:33:35.296Z,8.4
2017-04-26T07:34:34.962Z,8.32
2017-04-26T07:35:35.239Z,8.21
2017-04-26T07:36:35.544Z,8.21
2017-04-26T07:37:35.512Z,8.21
2017-04-26T07:38:35.182Z,8.32
2017-04-26T07:39:35.156Z,8.11
2017-04-26T07:40:35.432Z,8.12
2017-04-26T07:41:34.808Z,8.24
2017-04-26T07:42:35.094Z,8.06
2017-04-26T07:43:35.365Z,8.16
2017-04-26T07:44:34.742Z,8.22
2017-04-26T07:45:35.037Z,8.18
2017-04-26T07:46:35.314Z,8.16
2017-04-26T07:47:35.284Z,8.3
2017-04-26T07:48:35.262Z,8.52
2017-04-26T07:49:35.244Z,8.51
2017-04-26T07:50:34.924Z,8.54
2017-04-26T07:51:34.914Z,8.7
2017-04-26T07:52:34.874Z,8.83
2017-04-26T07:53:35.159Z,8.42
2017-04-26T07:54:35.140Z,8.45
2017-04-26T07:55:35.120Z,8.55
2017-04-26T07:56:34.783Z,8.54
2017-04-26T07:57:34.769Z,8.33
2017-04-26T07:58:34.742Z,8.24
2017-04-26T07:59:35.040Z,8.29
2017-04-26T08:00:35.013Z,8.16
2017-04-26T08:01:34.691Z,8.06
2017-04-26T08:02:34.653Z,7.91
2017-04-26T08:03:34.643Z,7.99
2017-04-26T08:04:34.662Z,8.24
2017-04-26T08:05:34.914Z,8.29
2017-04-26T08:06:34.880Z,8.42
2017-04-26T08:07:34.863Z,8.34
2017-04-26T08:08:34.842Z,8.54
2017-04-26T08:09:34.885Z,8.48
2017-04-26T08:10:34.492Z,8.5
2017-04-26T08:11:34.466Z,8.67
2017-04-26T08:12:34.132Z,8.72
2017-04-26T08:13:34.827Z,8.98
2017-04-26T08:14:34.105Z,9.06
2017-04-26T08:15:34.377Z,9.1
2017-04-26T08:16:34.655Z,9.31
2017-04-26T08:17:34.338Z,9.32
2017-04-26T08:18:34.633Z,9.43
2017-04-26T08:19:34.315Z,9.62
2017-04-26T08:20:34.606Z,9.6
2017-04-26T08:21:34.012Z,9.53
2017-04-26T08:22:34.252Z,9.58
2017-04-26T08:23:34.215Z,9.65
2017-04-26T08:24:34.201Z,9.49
2017-04-26T08:25:34.492Z,9.72
2017-04-26T08:26:34.473Z,10.11
2017-04-26T08:27:34.142Z,10.71
2017-04-26T08:28:34.123Z,11.14
2017-04-26T08:29:34.095Z,10.77
2017-04-26T08:30:34.468Z,10.93
2017-04-26T08:31:34.366Z,10.99
2017-04-26T08:32:34.352Z,11.21
2017-04-26T08:33:34.102Z,11.38
2017-04-26T08:34:34.016Z,11.57
2017-04-26T08:35:34.002Z,11.83
2017-04-26T08:36:33.965Z,11.75
2017-04-26T08:37:34.252Z,11.38
2017-04-26T08:38:33.946Z,11.48
2017-04-26T08:39:33.857Z,11.76
2017-04-26T08:40:33.914Z,11.84
2017-04-26T08:41:33.893Z,12.06
2017-04-26T08:42:34.174Z,12.07
2017-04-26T08:43:33.861Z,12.05
2017-04-26T08:44:33.843Z,12.02
2017-04-26T08:45:34.186Z,11.9
2017-04-26T08:46:34.101Z,11.97
2017-04-26T08:47:34.093Z,11.94
2017-04-26T08:48:34.072Z,12.2
2017-04-26T08:49:34.055Z,12.43
2017-04-26T08:50:34.053Z,12.88
2017-04-26T08:51:34.043Z,13.21
2017-04-26T08:52:34.047Z,13.49
2017-04-26T08:53:33.994Z,13.77
2017-04-26T08:54:33.986Z,13.66
2017-04-26T08:55:33.666Z,13.7
2017-04-26T08:56:33.943Z,13.66
2017-04-26T08:57:33.935Z,13.65
2017-04-26T08:58:33.615Z,13.72
2017-04-26T08:59:33.911Z,13.77
2017-04-26T09:00:33.908Z,13.82
2017-04-26T09:01:33.573Z,14.15
2017-04-26T09:02:33.882Z,14.32
2017-04-26T09:03:33.881Z,14.51
2017-04-26T09:04:33.547Z,14.62
2017-04-26T09:05:33.835Z,14.8
2017-04-26T09:06:33.835Z,15.21
2017-04-26T09:07:33.819Z,15.58
2017-04-26T09:08:33.792Z,15.39
2017-04-26T09:09:33.787Z,15.16
2017-04-26T09:10:33.455Z,15
2017-04-26T09:11:33.757Z,14.69
2017-04-26T09:12:33.738Z,14.63
2017-04-26T09:13:33.727Z,14.53
2017-04-26T09:14:33.756Z,14.28
2017-04-26T09:15:33.706Z,13.99
2017-04-26T09:16:33.694Z,13.81
2017-04-26T09:17:33.681Z,13.65
2017-04-26T09:18:33.666Z,13.56
2017-04-26T09:19:33.643Z,13.48
2017-04-26T09:20:33.312Z,13.15
2017-04-26T09:21:33.620Z,12.76
2017-04-26T09:22:33.296Z,12.73
2017-04-26T09:23:33.265Z,12.61
2017-04-26T09:24:33.284Z,12.55
2017-04-26T09:25:33.242Z,12.4
2017-04-26T09:26:33.532Z,12.09
2017-04-26T09:27:33.205Z,11.81
2017-04-26T09:28:33.197Z,11.65
2017-04-26T09:29:33.482Z,11.5
2017-04-26T09:30:33.165Z,11.38
2017-04-26T09:31:33.437Z,11.13
2017-04-26T09:32:33.427Z,10.96
2017-04-26T09:33:33.412Z,10.9
2017-04-26T09:34:33.393Z,10.81
2017-04-26T09:35:33.372Z,10.71
2017-04-26T09:36:33.347Z,10.92
2017-04-26T09:37:33.022Z,11.02
2017-04-26T09:38:33.013Z,11.2
2017-04-26T09:39:33.295Z,11.21
2017-04-26T09:40:33.283Z,11.33
2017-04-26T09:41:33.264Z,11.32
2017-04-26T09:42:32.944Z,11.31
2017-04-26T09:43:33.225Z,11.13
2017-04-26T09:44:32.893Z,11.21
2017-04-26T09:45:32.884Z,11.26
2017-04-26T09:46:33.172Z,11.35
2017-04-26T09:47:33.142Z,11.38
2017-04-26T09:48:32.812Z,11.48
2017-04-26T09:49:32.792Z,11.36
2017-04-26T09:50:33.085Z,11.43
2017-04-26T09:51:33.081Z,11.36
2017-04-26T09:52:32.740Z,11.38
2017-04-26T09:53:33.030Z,11.57
2017-04-26T09:54:33.013Z,11.46
2017-04-26T09:55:32.383Z,11.15
2017-04-26T09:56:32.665Z,11.17
2017-04-26T09:57:32.982Z,11.36
2017-04-26T09:58:32.635Z,11.46
2017-04-26T09:59:32.663Z,11.54
2017-04-26T10:00:32.592Z,11.75
2017-04-26T10:01:32.882Z,11.83
2017-04-26T10:02:32.558Z,11.75
2017-04-26T10:03:32.844Z,11.73
2017-04-26T10:04:32.513Z,11.72
2017-04-26T10:05:32.509Z,11.71
2017-04-26T10:06:32.485Z,11.58
2017-04-26T10:07:32.214Z,11.6
2017-04-26T10:08:32.496Z,11.54
2017-04-26T10:09:32.124Z,11.6
2017-04-26T10:10:32.711Z,11.54
2017-04-26T10:11:32.704Z,11.56
2017-04-26T10:12:32.400Z,11.79
2017-04-26T10:13:32.655Z,11.46
2017-04-26T10:14:53.174Z,11.29
2017-04-26T10:15:32.616Z,11.32
2017-04-26T10:16:32.363Z,11.58
2017-04-26T10:17:32.618Z,11.78
2017-04-26T10:18:32.575Z,11.76
2017-04-26T10:19:32.022Z,11.94
2017-04-26T10:20:32.273Z,11.84
2017-04-26T10:21:32.213Z,11.81
2017-04-26T10:22:32.534Z,11.86
2017-04-26T10:23:32.464Z,11.95
2017-04-26T10:24:32.457Z,11.91
2017-04-26T10:25:32.433Z,11.97
2017-04-26T10:26:32.129Z,11.91
2017-04-26T10:27:31.855Z,11.89
2017-04-26T10:29:14.883Z,11.9
2017-04-26T10:29:32.046Z,11.86
2017-04-26T10:30:49.925Z,11.95
2017-04-26T10:31:32.004Z,11.86
2017-04-26T10:32:32.085Z,11.68
2017-04-26T10:33:32.276Z,11.64
2017-04-26T10:34:32.256Z,11.58
2017-04-26T10:35:31.613Z,11.6
2017-04-26T10:36:31.907Z,11.5
2017-04-26T10:37:32.222Z,11.48
2017-04-26T10:38:31.871Z,11.08
2017-04-26T10:39:32.170Z,11.32
2017-04-26T10:40:32.163Z,11.51
2017-04-26T10:41:32.434Z,11.6
2017-04-26T10:42:36.396Z,11.76
2017-04-26T10:43:31.785Z,11.86
2017-04-26T10:44:31.837Z,11.83
2017-04-26T10:45:31.739Z,11.69
2017-04-26T10:46:31.716Z,11.51
2017-04-26T10:47:31.402Z,11.47
2017-04-26T10:48:31.674Z,11.61
2017-04-26T10:49:31.674Z,11.91
2017-04-26T10:50:31.340Z,12.03
2017-04-26T10:51:31.936Z,12.23
2017-04-26T10:52:31.623Z,12.4
2017-04-26T10:53:31.587Z,12.45
2017-04-26T10:54:31.888Z,12.94
2017-04-26T10:55:31.559Z,13.47
2017-04-26T10:56:31.854Z,13.92
2017-04-26T10:57:31.528Z,14.35
2017-04-26T10:58:31.811Z,14.63
2017-04-26T10:59:31.473Z,15
2017-04-26T11:00:31.454Z,15.12
2017-04-26T11:01:31.443Z,15.22
2017-04-26T11:02:31.427Z,14.91
2017-04-26T11:03:31.437Z,14.66
2017-04-26T11:04:31.733Z,14.57
2017-04-26T11:05:31.683Z,14.72
2017-04-26T11:06:31.683Z,14.82
2017-04-26T11:07:31.642Z,15.14
2017-04-26T11:08:31.662Z,15.25
2017-04-26T11:09:31.628Z,15.17
2017-04-26T11:10:31.603Z,14.82
2017-04-26T11:11:31.616Z,14.72
2017-04-26T11:12:31.614Z,14.62
2017-04-26T11:13:31.565Z,14.63
2017-04-26T11:14:31.533Z,14.46
2017-04-26T11:15:31.228Z,14.28
2017-04-26T11:16:31.523Z,13.07
2017-04-26T11:17:31.218Z,12.89
2017-04-26T11:18:31.466Z,13.06
2017-04-26T11:19:31.484Z,13.33
2017-04-26T11:20:31.142Z,13.66
2017-04-26T11:21:31.488Z,13.92
2017-04-26T11:22:31.087Z,14.18
2017-04-26T11:23:31.536Z,14.33
2017-04-26T11:24:31.390Z,14.58
2017-04-26T11:25:31.053Z,14.46
2017-04-26T11:26:31.354Z,14.6
2017-04-26T11:27:31.327Z,14.88
2017-04-26T11:28:31.313Z,15.04
2017-04-26T11:29:31.468Z,15.06
2017-04-26T11:30:31.262Z,15.09
2017-04-26T11:31:30.984Z,15.16
2017-04-26T11:32:31.255Z,14.85
2017-04-26T11:33:30.995Z,14.68
2017-04-26T11:34:31.183Z,14.65
2017-04-26T11:35:30.901Z,14.85
2017-04-26T11:36:31.166Z,15.14
2017-04-26T11:37:30.923Z,15.43
2017-04-26T11:38:30.845Z,15.58
2017-04-26T11:39:31.138Z,15.44
2017-04-26T11:40:31.116Z,15.44
2017-04-26T11:41:31.095Z,15.02
2017-04-26T11:42:31.062Z,14.92
2017-04-26T11:43:31.104Z,14.82
2017-04-26T11:44:31.133Z,15.1
2017-04-26T11:45:31.087Z,15.32
2017-04-26T11:46:31.015Z,15.5
2017-04-26T11:47:31.075Z,15.65
2017-04-26T11:48:31.022Z,15.8
2017-04-26T11:49:31.035Z,16.13
2017-04-26T11:50:31.052Z,16.24
2017-04-26T11:51:30.974Z,16.57
2017-04-26T11:52:30.924Z,16.43
2017-04-26T11:53:31.005Z,16.13
2017-04-26T11:54:30.304Z,16.17
2017-04-26T11:55:30.889Z,16.07
2017-04-26T11:56:30.561Z,16.32
2017-04-26T11:57:30.857Z,16.17
2017-04-26T11:58:30.905Z,15.22
2017-04-26T11:59:30.835Z,14.73
2017-04-26T12:00:30.837Z,14.66
2017-04-26T12:01:30.479Z,14.6
2017-04-26T12:02:30.796Z,14.39
2017-04-26T12:03:30.500Z,14.03
2017-04-26T12:04:30.738Z,13.66
2017-04-26T12:05:30.413Z,13.57
2017-04-26T12:06:30.702Z,13.62
2017-04-26T12:07:30.377Z,13.6
2017-04-26T12:08:30.379Z,13.77
2017-04-26T12:09:30.343Z,13.75
2017-04-26T12:10:30.373Z,13.72
2017-04-26T12:11:30.611Z,13.77
2017-04-26T12:12:30.592Z,13.67
2017-04-26T12:13:30.254Z,13.38
2017-04-26T12:14:30.246Z,13.28
2017-04-26T12:15:30.230Z,13.14
2017-04-26T12:16:30.514Z,12.97
2017-04-26T12:17:30.507Z,12.97
2017-04-26T12:18:30.543Z,13.01
2017-04-26T12:19:30.465Z,13.16
2017-04-26T12:20:30.145Z,13.23
2017-04-26T12:21:30.163Z,13.45
2017-04-26T12:22:30.425Z,13.62
2017-04-26T12:23:30.419Z,13.75
2017-04-26T12:24:30.460Z,13.71
2017-04-26T12:25:30.066Z,14.02
2017-04-26T12:26:30.358Z,13.95
2017-04-26T12:27:30.341Z,14.13
2017-04-26T12:28:30.415Z,14.17
2017-04-26T12:29:30.315Z,14.2
2017-04-26T12:30:30.277Z,14.36
2017-04-26T12:31:29.961Z,14.48
2017-04-26T12:32:30.243Z,14.54
2017-04-26T12:33:30.296Z,14.46
2017-04-26T12:34:30.213Z,14.51
2017-04-26T12:35:30.190Z,14.51
2017-04-26T12:36:30.189Z,14.46
2017-04-26T12:37:29.844Z,14.6
2017-04-26T12:38:30.153Z,14.82
2017-04-26T12:39:30.135Z,14.96
2017-04-26T12:40:29.808Z,14.94
2017-04-26T12:41:30.110Z,14.91
2017-04-26T12:42:29.781Z,14.85
2017-04-26T12:43:30.050Z,14.7
2017-04-26T12:44:29.742Z,14.6
2017-04-26T12:45:30.022Z,14.35
2017-04-26T12:46:30.022Z,14.22
2017-04-26T12:47:30.002Z,14.29
2017-04-26T12:48:29.982Z,14.26
2017-04-26T12:49:29.990Z,14.05
2017-04-26T12:50:29.641Z,13.84
2017-04-26T12:51:29.925Z,13.93
2017-04-26T12:52:29.897Z,14.11
2017-04-26T12:53:29.601Z,14.29
2017-04-26T12:54:29.874Z,14.54
2017-04-26T12:55:29.554Z,14.73
2017-04-26T12:56:29.563Z,15.04
2017-04-26T12:57:29.822Z,14.85
2017-04-26T12:58:29.499Z,14.46
2017-04-26T12:59:29.483Z,14.6
2017-04-26T13:00:29.781Z,14.92
2017-04-26T13:01:29.147Z,15.2
2017-04-26T13:02:29.124Z,15.35
2017-04-26T13:03:29.734Z,15.47
2017-04-26T13:04:29.709Z,15.52
2017-04-26T13:05:29.389Z,15.61
2017-04-26T13:06:29.671Z,15.79
2017-04-26T13:07:29.362Z,15.46
2017-04-26T13:08:29.644Z,15.35
2017-04-26T13:09:29.319Z,15.42
2017-04-26T13:10:29.313Z,15.71
2017-04-26T13:11:29.285Z,15.6
2017-04-26T13:12:29.274Z,15.8